Portage, Utah
Current Conditions -  °F | °C
As of 7:51 AM on Monday 22 Dec 2014 (Local Time) from KLGU Reporting Station
Overcast Overcast  
Wind Chill: 36°   Ceiling: 3100
Heat Index: 40°   Visibility: 10mi
Dew Point: 32°   Wind: 6mph
Humidity: 73%   Direction: 350°N
Pressure: 29.97"   Gusts: NA
Location:  41.98°N, 112.21°W
Report Text: KLGU 221451Z AUTO 35005KT 10SM OVC031 04/00 A2997 RMK AO2 RAB31E40 SLP145 P0000 60000 T00440000 53002
Loading
Personal Weather Stations






























Interactive Weather Map New forecast layout! Learn more

10-Day Weather Forecast

Advertisements
Track Severe Weather on mobile